Time;durP1;ratioP1;P1;durP2;ratioP2;P2;SDS_P1;SDS_P2;PMS_P1;PMS_P2;Temp;Humidity;BMP_temperature;BMP_pressure;BME280_temperature;BME280_humidity;BME280_pressure;Samples;Min_cycle;Max_cycle;Signal;HPM_P1;HPM_P2
2022/04/15 00:00:08;;;;;;;3.30;1.83;;;11.40;99.90;;;;;;6129199;23;20025;-89
2022/04/15 00:02:38;;;;;;;3.30;1.55;;;11.40;99.90;;;;;;6128914;23;20020;-88
2022/04/15 00:07:52;;;;;;;4.45;1.80;;;11.40;99.90;;;;;;6155592;23;20021;-88
2022/04/15 00:10:20;;;;;;;8.23;2.03;;;11.40;99.90;;;;;;6129161;23;20017;-89
2022/04/15 00:12:47;;;;;;;4.15;1.67;;;11.40;99.90;;;;;;6104836;23;20425;-89
2022/04/15 00:15:15;;;;;;;4.32;2.25;;;11.30;99.90;;;;;;6128686;23;20018;-88
2022/04/15 00:17:42;;;;;;;7.40;1.27;;;11.30;99.90;;;;;;6129569;23;20049;-89
2022/04/15 00:20:11;;;;;;;6.68;1.65;;;11.20;99.90;;;;;;6155180;23;20018;-89
2022/04/15 00:22:39;;;;;;;3.95;1.35;;;11.20;99.90;;;;;;6129363;23;20021;-89
2022/04/15 00:25:07;;;;;;;4.05;1.52;;;11.20;99.90;;;;;;6129387;23;20438;-88
2022/04/15 00:27:35;;;;;;;3.97;1.50;;;11.20;99.90;;;;;;6129318;23;20022;-88
2022/04/15 00:30:03;;;;;;;5.32;1.80;;;11.20;99.90;;;;;;6129195;23;20457;-89
2022/04/15 00:32:30;;;;;;;3.58;1.77;;;11.10;99.90;;;;;;6129547;23;20028;-89
2022/04/15 00:34:57;;;;;;;3.88;2.28;;;11.10;99.90;;;;;;6131991;23;20025;-88
2022/04/15 00:37:25;;;;;;;3.25;1.60;;;11.10;99.90;;;;;;6131693;23;20021;-88
2022/04/15 00:39:52;;;;;;;7.55;1.63;;;11.00;99.90;;;;;;6131092;23;20108;-88
2022/04/15 00:42:23;;;;;;;3.20;1.60;;;11.00;99.90;;;;;;6131182;23;20068;-89
2022/04/15 00:44:58;;;;;;;3.20;1.20;;;11.00;99.90;;;;;;6130901;23;20021;-89
2022/04/15 00:48:01;;;;;;;3.75;1.42;;;11.00;99.90;;;;;;6130842;23;20092;-89
2022/04/15 00:50:32;;;;;;;2.42;1.80;;;11.00;99.90;;;;;;6070659;23;20073;-89
2022/04/15 00:53:09;;;;;;;2.92;1.38;;;11.00;99.90;;;;;;6131332;23;20056;-89
2022/04/15 00:55:38;;;;;;;2.30;1.08;;;10.90;99.90;;;;;;6130883;23;20041;-88
2022/04/15 00:58:06;;;;;;;1.83;1.20;;;10.90;99.90;;;;;;6131060;23;20021;-89
2022/04/15 01:00:35;;;;;;;2.65;1.58;;;10.90;99.90;;;;;;6131046;23;20021;-88
2022/04/15 01:03:05;;;;;;;6.65;1.10;;;10.80;99.90;;;;;;6131267;23;20021;-88
2022/04/15 01:05:33;;;;;;;2.75;1.30;;;10.90;99.90;;;;;;6131648;23;20073;-89
2022/04/15 01:08:02;;;;;;;4.43;1.52;;;10.80;99.90;;;;;;6131970;23;20010;-88
2022/04/15 01:10:33;;;;;;;2.28;1.10;;;10.80;99.90;;;;;;6132418;23;20060;-89
2022/04/15 01:13:05;;;;;;;2.88;0.93;;;10.80;99.90;;;;;;6132542;23;20013;-89
2022/04/15 01:15:52;;;;;;;3.30;1.40;;;10.70;99.90;;;;;;6132076;23;20314;-89
2022/04/15 01:18:19;;;;;;;2.85;1.35;;;10.70;99.90;;;;;;6131866;23;20044;-89
2022/04/15 01:20:49;;;;;;;4.70;1.67;;;10.70;99.90;;;;;;6131213;23;20472;-89
2022/04/15 01:23:17;;;;;;;3.97;1.35;;;10.70;99.90;;;;;;6131758;23;20049;-88
2022/04/15 01:25:44;;;;;;;2.83;1.58;;;10.70;99.90;;;;;;6131316;23;20096;-89
2022/04/15 01:28:16;;;;;;;2.40;1.58;;;10.60;99.90;;;;;;6131581;23;20021;-89
2022/04/15 01:30:44;;;;;;;5.47;1.65;;;10.60;99.90;;;;;;6130161;23;20024;-89
2022/04/15 01:33:12;;;;;;;4.60;1.48;;;10.60;99.90;;;;;;6111826;23;20021;-89
2022/04/15 01:35:41;;;;;;;2.90;1.48;;;10.50;99.90;;;;;;6132142;23;20029;-89
2022/04/15 01:38:14;;;;;;;2.78;1.45;;;10.50;99.90;;;;;;6134828;23;20036;-89
2022/04/15 01:40:42;;;;;;;;;;;10.50;99.90;;;;;;6131504;23;20030;-89
2022/04/15 01:43:10;;;;;;;7.63;1.38;;;10.50;99.90;;;;;;6157032;23;20341;-90
2022/04/15 01:45:37;;;;;;;3.45;1.33;;;10.50;99.90;;;;;;6106358;23;20021;-89
2022/04/15 01:48:04;;;;;;;3.17;1.55;;;10.50;99.90;;;;;;6130999;23;20017;-90
2022/04/15 01:50:32;;;;;;;4.85;1.30;;;10.50;99.90;;;;;;6107167;23;20022;-89
2022/04/15 01:52:59;;;;;;;2.90;1.60;;;10.40;99.90;;;;;;6130799;23;20021;-89
2022/04/15 01:55:28;;;;;;;3.80;1.65;;;10.40;99.90;;;;;;6130701;23;20021;-89
2022/04/15 01:57:55;;;;;;;3.83;1.40;;;10.40;99.90;;;;;;6130968;23;20499;-90
2022/04/15 02:00:22;;;;;;;3.13;1.73;;;10.40;99.90;;;;;;6155956;23;20017;-88
2022/04/15 02:02:50;;;;;;;6.07;2.08;;;10.30;99.90;;;;;;6156896;23;20024;-89
2022/04/15 02:05:17;;;;;;;2.08;1.38;;;10.30;99.90;;;;;;6129971;23;20405;-89
2022/04/15 02:07:44;;;;;;;3.15;1.50;;;10.30;99.90;;;;;;6130048;23;20085;-89
2022/04/15 02:10:12;;;;;;;2.15;1.40;;;10.30;99.90;;;;;;6129541;23;20022;-89
2022/04/15 02:12:39;;;;;;;6.45;1.92;;;10.20;99.90;;;;;;6130164;23;20097;-90
2022/04/15 02:15:06;;;;;;;4.30;1.45;;;10.20;99.90;;;;;;6130064;23;20051;-89
2022/04/15 02:17:33;;;;;;;3.05;2.10;;;10.20;99.90;;;;;;6129676;23;20028;-87
2022/04/15 02:20:00;;;;;;;1.85;1.23;;;10.20;99.90;;;;;;6105373;23;20105;-88
2022/04/15 02:22:28;;;;;;;1.63;1.48;;;10.20;99.90;;;;;;6129902;23;20021;-89
2022/04/15 02:24:56;;;;;;;2.00;1.70;;;10.20;99.90;;;;;;6130483;23;20085;-89
2022/04/15 02:27:22;;;;;;;2.67;1.58;;;10.10;99.90;;;;;;6130279;23;20401;-90
2022/04/15 02:29:49;;;;;;;2.05;1.73;;;10.10;99.90;;;;;;6155570;23;20014;-88
2022/04/15 02:32:17;;;;;;;2.67;1.45;;;10.10;99.90;;;;;;6129739;23;20100;-88
2022/04/15 02:34:44;;;;;;;5.28;1.73;;;10.10;99.90;;;;;;6105450;23;20025;-89
2022/04/15 02:37:11;;;;;;;1.27;1.17;;;10.00;99.90;;;;;;6105325;23;20021;-89
2022/04/15 02:39:38;;;;;;;5.80;1.70;;;10.00;99.90;;;;;;6129408;23;20460;-89
2022/04/15 02:42:04;;;;;;;3.33;1.92;;;10.00;99.90;;;;;;6105439;23;20522;-89
2022/04/15 02:44:31;;;;;;;3.70;1.25;;;10.00;99.90;;;;;;6129823;23;20116;-88
2022/04/15 02:46:58;;;;;;;3.50;1.25;;;10.00;99.90;;;;;;6155857;23;20027;-89
2022/04/15 02:49:27;;;;;;;3.08;1.33;;;10.00;99.90;;;;;;6105649;23;20018;-90
2022/04/15 02:51:55;;;;;;;2.10;1.30;;;9.90;99.90;;;;;;6130121;23;20029;-89
2022/04/15 02:54:23;;;;;;;3.13;1.00;;;9.90;99.90;;;;;;6105822;23;20025;-88
2022/04/15 02:56:51;;;;;;;1.90;1.17;;;9.90;99.90;;;;;;6129324;23;20018;-90
2022/04/15 02:59:20;;;;;;;4.18;1.38;;;9.90;99.90;;;;;;6155738;23;20349;-90
2022/04/15 03:01:49;;;;;;;1.40;1.08;;;9.80;99.90;;;;;;6129712;23;20029;-89
2022/04/15 03:04:17;;;;;;;3.58;1.15;;;9.80;99.90;;;;;;6130292;23;20449;-90
2022/04/15 03:06:44;;;;;;;2.40;1.10;;;9.80;99.90;;;;;;6155690;23;20021;-89
2022/04/15 03:09:12;;;;;;;4.03;1.63;;;9.80;99.90;;;;;;6130048;23;20045;-89
2022/04/15 03:11:39;;;;;;;2.13;1.50;;;9.80;99.90;;;;;;6129343;23;20052;-89
2022/04/15 03:14:06;;;;;;;3.63;1.48;;;9.70;99.90;;;;;;6105571;23;20018;-89
2022/04/15 03:16:34;;;;;;;5.00;1.33;;;9.70;99.90;;;;;;6129040;23;20018;-90
2022/04/15 03:19:01;;;;;;;3.03;1.10;;;9.70;99.90;;;;;;6128838;23;20021;-89
2022/04/15 03:21:28;;;;;;;1.42;0.95;;;9.70;99.90;;;;;;6129082;23;20108;-90
2022/04/15 03:23:55;;;;;;;3.80;1.42;;;9.70;99.90;;;;;;6129851;23;20041;-88
2022/04/15 03:26:22;;;;;;;2.97;1.30;;;9.70;99.90;;;;;;6155140;23;20100;-89
2022/04/15 03:28:49;;;;;;;1.63;1.02;;;9.60;99.90;;;;;;6105365;23;20393;-89
2022/04/15 03:31:16;;;;;;;1.98;1.38;;;9.60;99.90;;;;;;6129055;23;20105;-89
2022/04/15 03:33:44;;;;;;;3.72;1.60;;;9.60;99.90;;;;;;6105386;23;20025;-89
2022/04/15 03:36:11;;;;;;;3.72;1.55;;;9.60;99.90;;;;;;6132093;23;20434;-89
2022/04/15 03:38:39;;;;;;;2.80;1.50;;;9.60;99.90;;;;;;6131262;23;20088;-88
2022/04/15 03:41:06;;;;;;;2.67;1.70;;;9.60;99.90;;;;;;6131105;23;20465;-88
2022/04/15 03:43:33;;;;;;;5.90;1.90;;;9.60;99.90;;;;;;6130468;23;20361;-88
2022/04/15 03:46:01;;;;;;;3.58;1.20;;;9.60;99.90;;;;;;6128737;23;20027;-90
2022/04/15 03:48:28;;;;;;;4.38;1.20;;;9.60;99.90;;;;;;6128753;23;20026;-89
2022/04/15 03:50:55;;;;;;;2.90;1.38;;;9.60;99.90;;;;;;6154648;23;20402;-89
2022/04/15 03:53:22;;;;;;;2.47;1.45;;;9.60;99.90;;;;;;6155108;23;20120;-89
2022/04/15 03:55:51;;;;;;;3.42;1.52;;;9.60;99.90;;;;;;6128720;23;20018;-88
2022/04/15 03:58:18;;;;;;;1.65;1.27;;;9.50;99.90;;;;;;6104928;23;20341;-89
2022/04/15 04:00:45;;;;;;;3.20;1.00;;;9.50;99.90;;;;;;6104345;23;20030;-89
2022/04/15 04:03:14;;;;;;;4.45;1.80;;;9.50;99.90;;;;;;6104984;23;20357;-88
2022/04/15 04:05:42;;;;;;;3.67;1.50;;;9.50;99.90;;;;;;6129880;23;20026;-89
2022/04/15 04:08:09;;;;;;;3.83;1.13;;;9.50;99.90;;;;;;6131610;23;20092;-89
2022/04/15 04:10:36;;;;;;;2.35;1.20;;;9.50;99.90;;;;;;6132379;23;20403;-90
2022/04/15 04:13:07;;;;;;;3.78;1.40;;;9.50;99.90;;;;;;6133384;23;20022;-91
2022/04/15 04:23:46;;;;;;;2.15;1.48;;;9.30;99.90;;;;;;6097416;23;20247;-91
2022/04/15 04:26:47;;;;;;;1.73;1.13;;;9.40;99.90;;;;;;6089029;23;20065;-90
2022/04/15 04:38:45;;;;;;;1.88;1.05;;;9.50;99.90;;;;;;5982595;23;20359;-90
2022/04/15 04:46:03;;;;;;;3.45;1.45;;;9.50;99.90;;;;;;5975763;24;20024;-91
2022/04/15 04:48:57;;;;;;;1.48;0.93;;;9.50;99.90;;;;;;5944518;24;20193;-89
2022/04/15 04:51:29;;;;;;;2.58;1.30;;;9.40;99.90;;;;;;5980556;23;20023;-90
2022/04/15 04:54:00;;;;;;;2.15;1.50;;;9.40;99.90;;;;;;5985770;23;20031;-91
2022/04/15 04:56:33;;;;;;;2.97;1.83;;;9.40;99.90;;;;;;5981352;23;20030;-88
2022/04/15 04:59:33;;;;;;;4.00;1.63;;;9.40;99.90;;;;;;5979448;23;20046;-90
2022/04/15 05:02:06;;;;;;;5.10;1.38;;;9.40;99.90;;;;;;6009264;23;20027;-90
2022/04/15 05:04:51;;;;;;;5.20;2.17;;;9.30;99.90;;;;;;5987175;23;20028;-91
2022/04/15 05:07:38;;;;;;;2.42;1.70;;;9.30;99.90;;;;;;5990685;23;20023;-90
2022/04/15 05:10:16;;;;;;;5.40;2.17;;;9.20;99.90;;;;;;5987108;23;20080;-90
2022/04/15 05:13:05;;;;;;;3.70;1.50;;;9.30;99.90;;;;;;5989795;23;20020;-90
2022/04/15 05:15:41;;;;;;;4.43;1.60;;;9.20;99.90;;;;;;6011104;23;20095;-90
2022/04/15 05:21:19;;;;;;;3.88;1.45;;;9.30;99.90;;;;;;5985774;23;20023;-89
2022/04/15 05:24:12;;;;;;;4.13;1.58;;;9.20;99.90;;;;;;6008497;23;20026;-89
2022/04/15 05:26:52;;;;;;;1.98;1.20;;;9.20;99.90;;;;;;6010019;23;20028;-90
2022/04/15 05:29:22;;;;;;;4.10;1.95;;;9.20;99.90;;;;;;6010181;23;20028;-89
2022/04/15 05:31:54;;;;;;;4.15;1.30;;;9.30;99.90;;;;;;5986948;23;20381;-90
2022/04/15 05:34:44;;;;;;;5.45;1.98;;;9.30;99.90;;;;;;5986943;23;20052;-90
2022/04/15 05:37:20;;;;;;;2.30;1.40;;;9.30;99.90;;;;;;6015739;23;20112;-89
2022/04/15 05:43:31;;;;;;;3.17;2.05;;;9.30;99.90;;;;;;5969789;24;20477;-89
2022/04/15 05:46:29;;;;;;;3.17;2.15;;;9.30;99.90;;;;;;5988735;23;20043;-91
2022/04/15 05:49:18;;;;;;;2.10;1.20;;;9.30;99.90;;;;;;6068604;23;20055;-88
2022/04/15 05:51:54;;;;;;;2.15;1.25;;;9.30;99.90;;;;;;6046613;23;20026;-90
2022/04/15 05:54:24;;;;;;;1.92;1.42;;;9.20;99.90;;;;;;6068475;23;20110;-89
2022/04/15 05:57:01;;;;;;;3.13;1.98;;;9.30;99.90;;;;;;6090670;23;20487;-88
2022/04/15 05:59:30;;;;;;;3.75;1.52;;;9.20;99.90;;;;;;6068008;23;20443;-89
2022/04/15 06:01:57;;;;;;;5.15;1.52;;;9.10;99.90;;;;;;6069249;23;20094;-88
2022/04/15 06:04:53;;;;;;;3.40;1.55;;;9.20;99.90;;;;;;6068440;23;20015;-90
2022/04/15 06:07:31;;;;;;;1.80;1.20;;;9.30;99.90;;;;;;6069541;23;20025;-90
2022/04/15 06:10:05;;;;;;;1.60;0.98;;;9.30;99.90;;;;;;6043917;23;20023;-89
2022/04/15 06:13:04;;;;;;;4.03;2.10;;;9.30;99.90;;;;;;6069168;23;20022;-90
2022/04/15 06:15:51;;;;;;;4.10;2.03;;;9.20;99.90;;;;;;6067948;23;20022;-90
2022/04/15 06:18:23;;;;;;;4.15;1.77;;;9.20;99.90;;;;;;6069122;23;20019;-89
2022/04/15 06:21:00;;;;;;;2.70;1.70;;;9.20;99.90;;;;;;6043659;23;20110;-90
2022/04/15 06:23:32;;;;;;;1.52;1.30;;;9.20;99.90;;;;;;6067862;23;20049;-89
2022/04/15 06:25:59;;;;;;;2.50;1.23;;;9.20;99.90;;;;;;6069614;23;20023;-90
2022/04/15 06:28:28;;;;;;;1.80;1.50;;;9.30;99.90;;;;;;6091636;23;20019;-90
2022/04/15 06:31:12;;;;;;;2.40;1.52;;;9.30;99.90;;;;;;6067714;23;20015;-89
2022/04/15 06:34:00;;;;;;;3.05;2.40;;;9.30;99.90;;;;;;6068881;23;20050;-89
2022/04/15 06:36:35;;;;;;;2.88;2.20;;;9.30;99.90;;;;;;6067184;23;20085;-90
2022/04/15 06:39:09;;;;;;;3.75;1.88;;;9.30;99.90;;;;;;6068225;23;20019;-91
2022/04/15 06:41:40;;;;;;;2.53;1.75;;;9.20;99.90;;;;;;6044928;23;20023;-89
2022/04/15 06:44:16;;;;;;;3.83;2.42;;;9.30;99.90;;;;;;6091408;23;20030;-91
2022/04/15 06:46:50;;;;;;;;;;;9.20;99.90;;;;;;6023410;23;20379;-90
2022/04/15 06:49:29;;;;;;;3.15;1.60;;;9.20;99.90;;;;;;6044699;23;19918;-89
2022/04/15 06:52:02;;;;;;;4.03;2.85;;;9.30;99.90;;;;;;6070235;23;20018;-89
2022/04/15 06:54:36;;;;;;;3.92;2.22;;;9.30;99.90;;;;;;6068057;23;20018;-89
2022/04/15 06:57:03;;;;;;;2.35;1.60;;;9.20;99.90;;;;;;6044084;23;20023;-90
2022/04/15 06:59:37;;;;;;;3.88;1.88;;;9.30;99.90;;;;;;6043704;23;20067;-90
2022/04/15 07:02:11;;;;;;;5.57;2.28;;;9.30;99.90;;;;;;6066704;23;20362;-90
2022/04/15 07:04:52;;;;;;;4.13;2.05;;;9.30;99.90;;;;;;6067477;23;20106;-89
2022/04/15 07:07:31;;;;;;;2.22;1.27;;;9.30;99.90;;;;;;6069669;23;20026;-90
2022/04/15 07:10:15;;;;;;;4.10;1.60;;;9.30;99.90;;;;;;6047400;23;20023;-87
2022/04/15 07:12:45;;;;;;;4.10;2.20;;;9.40;99.90;;;;;;6068075;23;20052;-89
2022/04/15 07:15:15;;;;;;;3.40;1.95;;;9.40;99.90;;;;;;6069740;23;20010;-90
2022/04/15 07:17:47;;;;;;;4.50;2.13;;;9.30;99.90;;;;;;6069567;23;20011;-90
2022/04/15 07:20:15;;;;;;;3.55;1.77;;;9.30;99.90;;;;;;6090940;23;20055;-91
2022/04/15 07:22:49;;;;;;;2.15;1.63;;;9.40;99.90;;;;;;6067019;23;20019;-90
2022/04/15 07:25:22;;;;;;;4.47;1.42;;;9.40;99.90;;;;;;6090046;23;20308;-89
2022/04/15 07:27:56;;;;;;;17.48;2.20;;;9.40;99.90;;;;;;6067772;23;20047;-90
2022/04/15 07:30:23;;;;;;;4.22;2.00;;;9.30;99.90;;;;;;6066755;23;20043;-90
2022/04/15 07:32:52;;;;;;;7.97;1.77;;;9.30;99.90;;;;;;6067578;23;20019;-89
2022/04/15 07:35:20;;;;;;;3.45;2.00;;;9.30;99.90;;;;;;6067323;23;20371;-90
2022/04/15 07:37:52;;;;;;;2.55;1.50;;;9.40;99.90;;;;;;6069117;23;20498;-89
2022/04/15 07:40:19;;;;;;;3.28;1.63;;;9.50;99.90;;;;;;6090421;23;20030;-90
2022/04/15 07:42:47;;;;;;;5.32;2.05;;;9.60;99.90;;;;;;6090819;23;20034;-89
2022/04/15 07:45:14;;;;;;;6.80;2.30;;;9.70;99.90;;;;;;6067456;23;20018;-90
2022/04/15 07:47:43;;;;;;;6.60;2.63;;;9.60;99.90;;;;;;6065489;23;20019;-90
2022/04/15 07:50:25;;;;;;;5.60;2.47;;;9.50;99.90;;;;;;6067807;23;20228;-91
2022/04/15 07:52:59;;;;;;;2.80;1.92;;;9.50;99.90;;;;;;6067420;23;20030;-89
2022/04/15 07:55:35;;;;;;;4.95;2.53;;;9.60;99.90;;;;;;6067698;23;20023;-90
2022/04/15 07:58:11;;;;;;;3.60;2.55;;;9.50;99.90;;;;;;6067156;23;20343;-89
2022/04/15 08:00:42;;;;;;;5.25;2.38;;;9.60;99.90;;;;;;6091182;23;20023;-91
2022/04/15 08:03:13;;;;;;;3.92;2.25;;;9.70;99.90;;;;;;6067159;23;20444;-91
2022/04/15 08:05:43;;;;;;;3.88;2.28;;;9.70;99.90;;;;;;6091342;23;20023;-92
2022/04/15 08:08:15;;;;;;;3.58;2.70;;;9.80;99.90;;;;;;6067439;23;20078;-92
2022/04/15 08:10:50;;;;;;;2.78;1.67;;;9.70;99.90;;;;;;6066335;23;20098;-91
2022/04/15 08:13:19;;;;;;;4.03;1.67;;;9.80;99.90;;;;;;6067283;23;20391;-92
2022/04/15 08:15:55;;;;;;;3.72;1.65;;;9.80;99.90;;;;;;6068250;23;20019;-91
2022/04/15 08:18:23;;;;;;;4.45;1.50;;;9.70;99.90;;;;;;6067729;23;20589;-91
2022/04/15 08:21:00;;;;;;;3.13;1.60;;;9.60;99.90;;;;;;6067231;23;20050;-93
2022/04/15 08:23:38;;;;;;;5.45;1.90;;;9.70;99.90;;;;;;6067211;23;20019;-92
2022/04/15 08:26:16;;;;;;;2.97;1.60;;;9.80;99.90;;;;;;6045543;23;20026;-89
2022/04/15 08:28:46;;;;;;;6.18;2.00;;;9.70;99.90;;;;;;6091149;23;20436;-90
2022/04/15 08:31:15;;;;;;;4.50;1.85;;;9.80;99.90;;;;;;6067327;23;20481;-90
2022/04/15 08:33:42;;;;;;;4.50;2.58;;;9.60;99.90;;;;;;6068781;23;20098;-92
2022/04/15 08:36:19;;;;;;;3.85;2.47;;;9.50;99.90;;;;;;6045747;23;20019;-92
2022/04/15 08:38:51;;;;;;;4.60;2.20;;;9.60;99.90;;;;;;6043655;23;20031;-90
2022/04/15 08:41:23;;;;;;;3.67;2.50;;;9.60;99.90;;;;;;6068215;23;20022;-90
2022/04/15 08:43:59;;;;;;;2.50;1.73;;;9.70;99.90;;;;;;6044034;23;20023;-89
2022/04/15 08:46:28;;;;;;;6.93;2.15;;;9.60;99.90;;;;;;6066896;23;20057;-91
2022/04/15 08:48:59;;;;;;;2.05;1.38;;;9.70;99.90;;;;;;6066721;23;20110;-91
2022/04/15 08:51:28;;;;;;;3.33;1.73;;;9.80;99.90;;;;;;6066986;23;20019;-90
2022/04/15 08:53:56;;;;;;;2.78;1.90;;;9.70;99.90;;;;;;6042609;23;20034;-90
2022/04/15 08:56:26;;;;;;;2.83;1.67;;;9.70;99.90;;;;;;6068294;23;20095;-89
2022/04/15 08:58:53;;;;;;;4.03;1.73;;;9.50;99.90;;;;;;6068936;23;20018;-91
2022/04/15 09:01:20;;;;;;;2.15;1.40;;;9.60;99.90;;;;;;6069026;23;20451;-91
2022/04/15 09:03:48;;;;;;;3.47;1.90;;;9.60;99.90;;;;;;6068571;23;20022;-91
2022/04/15 09:06:22;;;;;;;1.90;1.38;;;9.60;99.90;;;;;;6070283;23;20443;-89
2022/04/15 09:09:11;;;;;;;1.70;1.40;;;9.60;99.90;;;;;;6068308;23;20033;-88
2022/04/15 09:11:47;;;;;;;3.35;1.70;;;9.70;99.90;;;;;;6045432;23;20332;-90
2022/04/15 09:14:15;;;;;;;2.97;1.40;;;9.60;99.90;;;;;;6044042;23;20030;-90
2022/04/15 09:16:48;;;;;;;3.17;1.55;;;9.70;99.90;;;;;;6088910;23;20090;-91
2022/04/15 09:19:19;;;;;;;2.40;1.50;;;9.60;99.90;;;;;;6091949;23;20451;-90
2022/04/15 09:21:55;;;;;;;6.57;1.42;;;9.70;99.90;;;;;;6067585;23;20026;-90
2022/04/15 09:24:33;;;;;;;2.55;1.80;;;9.50;99.90;;;;;;6068802;23;20023;-89
2022/04/15 09:27:08;;;;;;;2.05;1.35;;;9.60;99.90;;;;;;6044110;23;20089;-91
2022/04/15 09:29:39;;;;;;;1.75;1.33;;;9.60;99.90;;;;;;6021625;23;20023;-89
2022/04/15 09:32:16;;;;;;;2.28;1.80;;;9.70;99.90;;;;;;6044675;23;20019;-91
2022/04/15 09:35:05;;;;;;;3.80;1.52;;;9.60;99.90;;;;;;6091752;23;20018;-90
2022/04/15 09:37:43;;;;;;;2.10;1.48;;;9.70;99.90;;;;;;6067043;23;20019;-90
2022/04/15 09:40:26;;;;;;;2.33;1.30;;;9.70;99.90;;;;;;6067609;23;20019;-91
2022/04/15 09:42:59;;;;;;;2.40;1.40;;;9.60;99.90;;;;;;6067934;23;20089;-90
2022/04/15 09:45:30;;;;;;;4.30;2.25;;;9.80;99.90;;;;;;6069654;23;20023;-90
2022/04/15 09:48:03;;;;;;;2.58;1.65;;;9.80;99.90;;;;;;6067720;23;20027;-90
2022/04/15 09:50:36;;;;;;;4.18;1.42;;;9.90;99.90;;;;;;6068289;23;20066;-90
2022/04/15 09:53:24;;;;;;;2.55;1.50;;;10.10;99.90;;;;;;6067887;23;20015;-90
2022/04/15 09:55:52;;;;;;;2.85;1.80;;;10.30;99.90;;;;;;6090891;23;20022;-91
2022/04/15 09:58:28;;;;;;;6.53;2.00;;;10.30;99.90;;;;;;6067224;23;20418;-90
2022/04/15 10:01:03;;;;;;;2.72;2.17;;;10.30;99.90;;;;;;6023119;23;20022;-91
2022/04/15 10:03:45;;;;;;;4.88;1.55;;;10.00;99.90;;;;;;6067588;23;20078;-91
2022/04/15 10:11:08;;;;;;;;;;;;;;;;;;;;;
2022/04/15 10:13:59;;;;;;;5.68;2.85;;;9.80;99.90;;;;;;6049719;23;20466;-91
2022/04/15 10:17:02;;;;;;;6.63;3.15;;;10.00;99.90;;;;;;6066837;23;20023;-91
2022/04/15 10:20:33;;;;;;;7.10;3.60;;;9.90;99.90;;;;;;6067252;23;20019;-91
2022/04/15 10:23:44;;;;;;;7.43;3.08;;;10.20;99.90;;;;;;6045787;23;20021;-91
2022/04/15 10:27:07;;;;;;;5.53;3.25;;;10.40;99.90;;;;;;6067321;23;20033;-92
2022/04/15 10:30:22;;;;;;;5.65;3.85;;;10.10;99.90;;;;;;6044395;23;20439;-91
2022/04/15 10:33:49;;;;;;;8.40;4.22;;;10.10;99.90;;;;;;6062824;23;20148;-91
2022/04/15 10:37:14;;;;;;;4.55;3.60;;;10.40;99.90;;;;;;6074120;23;20324;-90
2022/04/15 10:40:49;;;;;;;5.32;3.45;;;10.40;99.90;;;;;;6068186;23;20026;-89
2022/04/15 10:43:56;;;;;;;7.80;4.07;;;10.90;99.90;;;;;;6042784;23;20106;-90
2022/04/15 10:46:40;;;;;;;7.47;3.83;;;10.40;99.90;;;;;;6068081;23;20038;-90
2022/04/15 10:49:41;;;;;;;;;;;;;;;;;;;;;
2022/04/15 10:52:27;;;;;;;7.82;4.05;;;10.50;99.90;;;;;;6066910;23;20018;-89
2022/04/15 10:55:15;;;;;;;9.50;4.97;;;10.40;99.90;;;;;;6067521;23;20030;-91
2022/04/15 10:58:16;;;;;;;11.07;4.57;;;10.40;99.90;;;;;;6043012;23;20019;-90
2022/04/15 11:01:24;;;;;;;5.68;3.85;;;10.40;99.90;;;;;;6066175;23;20030;-89
2022/04/15 11:04:05;;;;;;;7.53;4.28;;;10.70;99.90;;;;;;6068369;23;20014;-90
2022/04/15 11:06:35;;;;;;;5.55;3.42;;;10.90;99.90;;;;;;6066441;23;20098;-89
2022/04/15 11:09:20;;;;;;;7.78;4.22;;;11.20;99.90;;;;;;6067144;23;20474;-91
2022/04/15 11:12:02;;;;;;;11.35;4.88;;;11.00;99.90;;;;;;6090224;23;20015;-89
2022/04/15 11:14:44;;;;;;;8.32;3.85;;;10.90;99.90;;;;;;6020203;23;20027;-91
2022/04/15 11:17:38;;;;;;;10.60;4.65;;;11.20;99.90;;;;;;6044343;23;20401;-89
2022/04/15 11:20:19;;;;;;;10.85;5.03;;;11.20;99.90;;;;;;6066291;23;20431;-89
2022/04/15 11:22:57;;;;;;;11.95;5.05;;;10.80;99.90;;;;;;6066346;23;20408;-90
2022/04/15 11:25:56;;;;;;;8.77;4.55;;;11.30;99.90;;;;;;6069176;23;20026;-90
2022/04/15 11:28:36;;;;;;;7.05;3.45;;;11.60;99.90;;;;;;6067876;23;20027;-90
2022/04/15 11:31:30;;;;;;;9.82;5.43;;;11.90;99.90;;;;;;6066300;23;20022;-90
2022/04/15 11:34:17;;;;;;;7.53;4.10;;;11.70;99.90;;;;;;6067802;23;20014;-89
2022/04/15 11:37:11;;;;;;;8.98;3.50;;;11.80;99.90;;;;;;6044416;23;20087;-90
2022/04/15 11:39:47;;;;;;;6.10;4.80;;;12.30;99.90;;;;;;6065677;23;20023;-90
2022/04/15 11:42:26;;;;;;;6.55;4.30;;;12.20;99.90;;;;;;6066147;23;20046;-90
2022/04/15 11:45:03;;;;;;;13.93;5.00;;;12.40;99.90;;;;;;6066601;23;20034;-90
2022/04/15 11:47:37;;;;;;;5.35;3.08;;;12.20;99.90;;;;;;6043687;23;20033;-90
2022/04/15 11:50:08;;;;;;;6.63;4.32;;;12.20;99.90;;;;;;6066451;23;20019;-89
2022/04/15 11:52:58;;;;;;;12.00;5.25;;;12.40;99.90;;;;;;6066899;23;20109;-90
2022/04/15 11:56:00;;;;;;;7.40;4.68;;;12.10;99.90;;;;;;6045197;23;20022;-90
2022/04/15 11:58:48;;;;;;;9.60;5.18;;;12.50;99.90;;;;;;6090901;23;20023;-89
2022/04/15 12:01:32;;;;;;;9.45;5.35;;;12.10;99.90;;;;;;6067328;23;20466;-90
2022/04/15 12:04:00;;;;;;;10.90;5.57;;;12.30;99.90;;;;;;6066696;23;20050;-91
2022/04/15 12:06:41;;;;;;;7.53;4.87;;;12.00;99.90;;;;;;6065947;23;20047;-90
2022/04/15 12:09:32;;;;;;;9.90;5.05;;;11.80;99.90;;;;;;6046002;23;20030;-90
2022/04/15 12:12:09;;;;;;;7.78;3.70;;;11.80;99.90;;;;;;6067476;23;20476;-90
2022/04/15 12:14:53;;;;;;;7.82;4.53;;;12.40;99.90;;;;;;6066565;23;20471;-93
2022/04/15 12:18:06;;;;;;;8.88;5.07;;;12.30;99.90;;;;;;6039252;23;20025;-90
2022/04/15 12:20:35;;;;;;;8.25;5.10;;;11.80;99.90;;;;;;6068192;23;20168;-86
2022/04/15 12:23:03;;;;;;;10.32;4.90;;;12.10;99.90;;;;;;6067750;23;20499;-86
2022/04/15 12:26:05;;;;;;;7.80;4.50;;;12.10;99.90;;;;;;6066615;23;20015;-84
2022/04/15 12:31:04;;;;;;;7.25;3.85;;;12.20;99.90;;;;;;6069811;23;20078;-85
2022/04/15 12:33:31;;;;;;;6.95;4.32;;;12.40;99.90;;;;;;6070153;23;20015;-85
2022/04/15 12:36:01;;;;;;;15.57;4.72;;;12.70;99.90;;;;;;6069877;23;20096;-85
2022/04/15 12:39:01;;;;;;;5.47;3.58;;;12.30;99.90;;;;;;6069823;23;20046;-88
2022/04/15 12:41:38;;;;;;;7.53;2.88;;;12.40;99.90;;;;;;6068820;23;20073;-85
2022/04/15 12:44:17;;;;;;;5.45;2.67;;;12.90;99.90;;;;;;6070536;23;20102;-88
2022/04/15 12:46:48;;;;;;;7.82;3.25;;;13.10;99.90;;;;;;6045689;23;20029;-88
2022/04/15 12:49:23;;;;;;;6.47;2.97;;;12.90;99.90;;;;;;6021118;23;20355;-89
2022/04/15 12:51:58;;;;;;;8.55;3.50;;;12.60;99.90;;;;;;6044793;23;20023;-92
2022/04/15 12:54:29;;;;;;;5.30;3.05;;;12.50;99.90;;;;;;6070358;23;20043;-91
2022/04/15 12:57:28;;;;;;;;;;;;;;;;;;;;;
2022/04/15 13:06:05;;;;;;;6.10;3.05;;;12.10;99.90;;;;;;6187073;23;20024;-87
2022/04/15 13:08:33;;;;;;;4.50;2.60;;;12.20;99.90;;;;;;6160734;23;20024;-91
2022/04/15 13:10:59;;;;;;;4.70;3.00;;;12.40;99.90;;;;;;6148786;23;20017;-88
2022/04/15 13:14:08;;;;;;;3.90;2.72;;;12.70;99.90;;;;;;6132083;23;20021;-91
2022/04/15 13:16:58;;;;;;;4.13;2.85;;;12.50;99.90;;;;;;6160174;23;20020;-91
2022/04/15 13:19:36;;;;;;;5.18;2.30;;;12.40;99.90;;;;;;6132686;23;20018;-93
2022/04/15 13:58:31;;;;;;;4.93;2.08;;;12.10;99.90;;;;;;6112306;23;20022;-88
2022/04/15 14:01:00;;;;;;;4.22;1.98;;;12.60;99.90;;;;;;6107679;23;20442;-89
2022/04/15 14:03:33;;;;;;;6.15;2.60;;;13.20;99.90;;;;;;6157365;23;20060;-88
2022/04/15 14:06:02;;;;;;;7.18;2.80;;;12.90;99.90;;;;;;6132194;23;20017;-89
2022/04/15 14:08:45;;;;;;;4.32;2.15;;;13.30;99.90;;;;;;6131849;23;20042;-88
2022/04/15 14:11:22;;;;;;;4.63;2.65;;;13.70;99.90;;;;;;6107994;23;20408;-88
2022/04/15 14:13:51;;;;;;;2.65;2.42;;;14.00;99.90;;;;;;6131460;23;20018;-90
2022/04/15 14:16:19;;;;;;;3.67;2.60;;;13.90;99.90;;;;;;6156947;23;20093;-89
2022/04/15 14:18:49;;;;;;;5.35;2.30;;;13.90;99.90;;;;;;6156947;23;20028;-89
2022/04/15 14:21:20;;;;;;;5.63;2.92;;;13.70;23.80;;;;;;6130275;23;20029;-89
2022/04/15 14:23:50;;;;;;;6.82;1.75;;;13.80;33.20;;;;;;6106556;23;20438;-89
2022/04/15 14:26:19;;;;;;;6.93;3.42;;;14.20;81.70;;;;;;6156964;23;20025;-89
2022/04/15 14:28:49;;;;;;;4.80;2.25;;;13.80;1.00;;;;;;6105972;23;20018;-89
2022/04/15 14:31:32;;;;;;;5.78;2.67;;;13.80;1.80;;;;;;6107217;23;20363;-89
2022/04/15 14:34:23;;;;;;;2.83;2.00;;;13.30;1.00;;;;;;6132894;23;20018;-89
2022/04/15 14:36:59;;;;;;;2.35;1.77;;;13.80;8.00;;;;;;6130475;23;20017;-89
2022/04/15 14:39:30;;;;;;;5.47;1.85;;;14.20;1.00;;;;;;6131069;23;20013;-89
2022/04/15 14:42:02;;;;;;;5.35;2.40;;;14.10;1.00;;;;;;6131107;23;20104;-89
2022/04/15 14:44:31;;;;;;;3.97;2.08;;;13.70;1.00;;;;;;6130993;23;20022;-89
2022/04/15 14:47:04;;;;;;;4.15;1.83;;;13.50;1.90;;;;;;6130514;23;20059;-88
2022/04/15 14:49:32;;;;;;;2.50;1.60;;;13.80;1.00;;;;;;6131612;23;20027;-89
2022/04/15 14:52:01;;;;;;;5.78;2.20;;;14.40;1.00;;;;;;6105724;23;20025;-89
2022/04/15 14:54:29;;;;;;;5.25;2.20;;;14.00;1.00;;;;;;6131655;23;20457;-88
2022/04/15 14:57:10;;;;;;;4.28;2.20;;;14.10;1.00;;;;;;6132945;23;20022;-89
2022/04/15 14:59:46;;;;;;;3.78;1.70;;;13.30;1.00;;;;;;6132989;23;20024;-89